sensor_id;sensor_type;location;lat;lon;timestamp;P1;durP1;ratioP1;P2;durP2;ratioP2
5776;SDS011;2914;42.668;23.346;2023-05-10T00:01:50;5.40;;;4.90;;
5776;SDS011;2914;42.668;23.346;2023-05-10T00:04:19;7.83;;;7.03;;
5776;SDS011;2914;42.668;23.346;2023-05-10T00:06:48;7.33;;;6.73;;
5776;SDS011;2914;42.668;23.346;2023-05-10T00:09:17;7.50;;;6.80;;
5776;SDS011;2914;42.668;23.346;2023-05-10T00:11:46;9.53;;;6.70;;
5776;SDS011;2914;42.668;23.346;2023-05-10T00:14:15;9.77;;;7.40;;
5776;SDS011;2914;42.668;23.346;2023-05-10T00:16:44;7.17;;;6.47;;
5776;SDS011;2914;42.668;23.346;2023-05-10T00:19:14;7.57;;;6.97;;
5776;SDS011;2914;42.668;23.346;2023-05-10T00:21:43;11.43;;;7.70;;
5776;SDS011;2914;42.668;23.346;2023-05-10T00:24:20;8.10;;;7.43;;
5776;SDS011;2914;42.668;23.346;2023-05-10T00:26:49;8.10;;;7.37;;
5776;SDS011;2914;42.668;23.346;2023-05-10T00:29:27;7.30;;;6.70;;
5776;SDS011;2914;42.668;23.346;2023-05-10T00:31:56;10.53;;;7.30;;
5776;SDS011;2914;42.668;23.346;2023-05-10T00:34:25;7.80;;;7.13;;
5776;SDS011;2914;42.668;23.346;2023-05-10T00:36:54;9.47;;;8.67;;
5776;SDS011;2914;42.668;23.346;2023-05-10T00:39:23;8.33;;;7.53;;
5776;SDS011;2914;42.668;23.346;2023-05-10T00:41:54;10.17;;;8.57;;
5776;SDS011;2914;42.668;23.346;2023-05-10T00:44:23;9.20;;;8.33;;
5776;SDS011;2914;42.668;23.346;2023-05-10T00:46:53;10.43;;;9.37;;
5776;SDS011;2914;42.668;23.346;2023-05-10T00:49:22;9.40;;;8.47;;
5776;SDS011;2914;42.668;23.346;2023-05-10T00:51:51;9.70;;;8.80;;
5776;SDS011;2914;42.668;23.346;2023-05-10T00:54:20;11.57;;;9.10;;
5776;SDS011;2914;42.668;23.346;2023-05-10T00:56:50;10.23;;;9.23;;
5776;SDS011;2914;42.668;23.346;2023-05-10T00:59:19;11.10;;;8.70;;
5776;SDS011;2914;42.668;23.346;2023-05-10T01:01:49;9.50;;;8.50;;
5776;SDS011;2914;42.668;23.346;2023-05-10T01:04:19;9.50;;;8.57;;
5776;SDS011;2914;42.668;23.346;2023-05-10T01:06:50;12.37;;;10.83;;
5776;SDS011;2914;42.668;23.346;2023-05-10T01:09:19;10.47;;;9.53;;
5776;SDS011;2914;42.668;23.346;2023-05-10T01:11:49;11.20;;;9.97;;
5776;SDS011;2914;42.668;23.346;2023-05-10T01:14:18;10.33;;;9.33;;
5776;SDS011;2914;42.668;23.346;2023-05-10T01:16:49;10.17;;;9.27;;
5776;SDS011;2914;42.668;23.346;2023-05-10T01:19:21;12.93;;;10.00;;
5776;SDS011;2914;42.668;23.346;2023-05-10T01:21:55;14.50;;;9.90;;
5776;SDS011;2914;42.668;23.346;2023-05-10T01:24:33;9.77;;;8.77;;
5776;SDS011;2914;42.668;23.346;2023-05-10T01:33:36;8.83;;;8.10;;
5776;SDS011;2914;42.668;23.346;2023-05-10T01:36:12;10.13;;;7.83;;
5776;SDS011;2914;42.668;23.346;2023-05-10T01:38:42;7.97;;;7.23;;
5776;SDS011;2914;42.668;23.346;2023-05-10T01:41:17;7.47;;;6.83;;
5776;SDS011;2914;42.668;23.346;2023-05-10T01:43:51;8.37;;;7.67;;
5776;SDS011;2914;42.668;23.346;2023-05-10T01:46:24;7.17;;;6.57;;
5776;SDS011;2914;42.668;23.346;2023-05-10T01:48:57;5.27;;;4.97;;
5776;SDS011;2914;42.668;23.346;2023-05-10T01:51:29;7.70;;;6.70;;
5776;SDS011;2914;42.668;23.346;2023-05-10T01:54:01;14.80;;;6.50;;
5776;SDS011;2914;42.668;23.346;2023-05-10T01:56:33;6.30;;;5.93;;
5776;SDS011;2914;42.668;23.346;2023-05-10T01:59:05;5.60;;;5.20;;
5776;SDS011;2914;42.668;23.346;2023-05-10T02:01:36;6.90;;;6.30;;
5776;SDS011;2914;42.668;23.346;2023-05-10T02:04:07;6.23;;;5.83;;
5776;SDS011;2914;42.668;23.346;2023-05-10T02:06:38;5.73;;;4.70;;
5776;SDS011;2914;42.668;23.346;2023-05-10T02:09:09;5.33;;;4.93;;
5776;SDS011;2914;42.668;23.346;2023-05-10T02:11:40;6.30;;;5.73;;
5776;SDS011;2914;42.668;23.346;2023-05-10T02:14:11;5.30;;;5.00;;
5776;SDS011;2914;42.668;23.346;2023-05-10T02:16:41;9.50;;;6.00;;
5776;SDS011;2914;42.668;23.346;2023-05-10T02:19:12;5.40;;;4.93;;
5776;SDS011;2914;42.668;23.346;2023-05-10T02:21:43;5.67;;;5.10;;
5776;SDS011;2914;42.668;23.346;2023-05-10T02:24:14;7.03;;;6.40;;
5776;SDS011;2914;42.668;23.346;2023-05-10T02:26:45;5.23;;;4.77;;
5776;SDS011;2914;42.668;23.346;2023-05-10T02:29:17;5.90;;;4.97;;
5776;SDS011;2914;42.668;23.346;2023-05-10T02:31:49;12.20;;;5.53;;
5776;SDS011;2914;42.668;23.346;2023-05-10T02:34:22;6.67;;;6.00;;
5776;SDS011;2914;42.668;23.346;2023-05-10T02:36:53;7.03;;;5.70;;
5776;SDS011;2914;42.668;23.346;2023-05-10T02:39:23;5.73;;;5.13;;
5776;SDS011;2914;42.668;23.346;2023-05-10T02:41:54;4.80;;;4.40;;
5776;SDS011;2914;42.668;23.346;2023-05-10T02:44:25;5.83;;;5.33;;
5776;SDS011;2914;42.668;23.346;2023-05-10T02:46:57;9.30;;;4.93;;
5776;SDS011;2914;42.668;23.346;2023-05-10T02:49:26;4.40;;;4.10;;
5776;SDS011;2914;42.668;23.346;2023-05-10T02:51:56;5.23;;;4.83;;
5776;SDS011;2914;42.668;23.346;2023-05-10T02:54:30;5.43;;;4.53;;
5776;SDS011;2914;42.668;23.346;2023-05-10T02:57:03;4.47;;;4.17;;
5776;SDS011;2914;42.668;23.346;2023-05-10T02:59:33;7.63;;;3.83;;
5776;SDS011;2914;42.668;23.346;2023-05-10T03:02:02;3.50;;;3.30;;
5776;SDS011;2914;42.668;23.346;2023-05-10T03:07:14;4.17;;;3.90;;
5776;SDS011;2914;42.668;23.346;2023-05-10T03:12:31;3.57;;;3.37;;
5776;SDS011;2914;42.668;23.346;2023-05-10T03:15:03;4.77;;;4.47;;
5776;SDS011;2914;42.668;23.346;2023-05-10T03:17:44;6.30;;;5.47;;
5776;SDS011;2914;42.668;23.346;2023-05-10T03:20:19;7.90;;;5.20;;
5776;SDS011;2914;42.668;23.346;2023-05-10T03:22:51;5.50;;;5.10;;
5776;SDS011;2914;42.668;23.346;2023-05-10T03:25:22;5.10;;;4.20;;
5776;SDS011;2914;42.668;23.346;2023-05-10T03:27:53;4.67;;;4.37;;
5776;SDS011;2914;42.668;23.346;2023-05-10T03:30:23;6.10;;;5.70;;
5776;SDS011;2914;42.668;23.346;2023-05-10T03:32:53;7.27;;;5.53;;
5776;SDS011;2914;42.668;23.346;2023-05-10T03:35:23;5.03;;;4.73;;
5776;SDS011;2914;42.668;23.346;2023-05-10T03:37:52;5.13;;;4.83;;
5776;SDS011;2914;42.668;23.346;2023-05-10T03:40:24;6.60;;;5.80;;
5776;SDS011;2914;42.668;23.346;2023-05-10T03:42:55;6.20;;;5.60;;
5776;SDS011;2914;42.668;23.346;2023-05-10T03:45:24;7.30;;;5.43;;
5776;SDS011;2914;42.668;23.346;2023-05-10T03:47:56;5.57;;;5.03;;
5776;SDS011;2914;42.668;23.346;2023-05-10T03:50:27;6.20;;;5.20;;
5776;SDS011;2914;42.668;23.346;2023-05-10T03:52:56;5.83;;;5.30;;
5776;SDS011;2914;42.668;23.346;2023-05-10T03:55:25;5.40;;;5.00;;
5776;SDS011;2914;42.668;23.346;2023-05-10T03:58:06;6.13;;;5.63;;
5776;SDS011;2914;42.668;23.346;2023-05-10T04:00:37;5.60;;;5.10;;
5776;SDS011;2914;42.668;23.346;2023-05-10T04:03:09;10.17;;;6.03;;
5776;SDS011;2914;42.668;23.346;2023-05-10T04:05:39;5.17;;;4.70;;
5776;SDS011;2914;42.668;23.346;2023-05-10T04:10:50;5.83;;;5.30;;
5776;SDS011;2914;42.668;23.346;2023-05-10T04:13:19;9.97;;;5.47;;
5776;SDS011;2914;42.668;23.346;2023-05-10T04:15:48;5.50;;;5.00;;
5776;SDS011;2914;42.668;23.346;2023-05-10T04:18:17;6.60;;;5.93;;
5776;SDS011;2914;42.668;23.346;2023-05-10T04:20:46;5.97;;;5.27;;
5776;SDS011;2914;42.668;23.346;2023-05-10T04:23:15;6.37;;;5.77;;
5776;SDS011;2914;42.668;23.346;2023-05-10T04:25:44;7.00;;;5.97;;
5776;SDS011;2914;42.668;23.346;2023-05-10T04:28:13;7.37;;;5.70;;
5776;SDS011;2914;42.668;23.346;2023-05-10T04:30:42;5.70;;;5.20;;
5776;SDS011;2914;42.668;23.346;2023-05-10T04:33:12;6.63;;;5.50;;
5776;SDS011;2914;42.668;23.346;2023-05-10T04:35:41;9.20;;;7.00;;
5776;SDS011;2914;42.668;23.346;2023-05-10T04:38:10;9.47;;;6.47;;
5776;SDS011;2914;42.668;23.346;2023-05-10T04:40:41;9.20;;;6.63;;
5776;SDS011;2914;42.668;23.346;2023-05-10T04:43:10;11.53;;;6.07;;
5776;SDS011;2914;42.668;23.346;2023-05-10T04:45:40;6.57;;;5.63;;
5776;SDS011;2914;42.668;23.346;2023-05-10T04:48:09;6.93;;;6.23;;
5776;SDS011;2914;42.668;23.346;2023-05-10T04:50:39;9.37;;;7.07;;
5776;SDS011;2914;42.668;23.346;2023-05-10T04:53:08;6.73;;;6.13;;
5776;SDS011;2914;42.668;23.346;2023-05-10T04:55:38;6.77;;;6.17;;
5776;SDS011;2914;42.668;23.346;2023-05-10T04:58:16;9.07;;;7.30;;
5776;SDS011;2914;42.668;23.346;2023-05-10T05:00:45;9.57;;;6.83;;
5776;SDS011;2914;42.668;23.346;2023-05-10T05:03:14;7.10;;;5.90;;
5776;SDS011;2914;42.668;23.346;2023-05-10T05:05:43;8.70;;;7.80;;
5776;SDS011;2914;42.668;23.346;2023-05-10T05:08:12;7.57;;;6.87;;
5776;SDS011;2914;42.668;23.346;2023-05-10T05:10:41;7.33;;;6.63;;
5776;SDS011;2914;42.668;23.346;2023-05-10T05:13:12;7.97;;;7.30;;
5776;SDS011;2914;42.668;23.346;2023-05-10T05:15:41;8.30;;;7.07;;
5776;SDS011;2914;42.668;23.346;2023-05-10T05:18:10;9.83;;;8.27;;
5776;SDS011;2914;42.668;23.346;2023-05-10T05:20:39;14.07;;;8.43;;
5776;SDS011;2914;42.668;23.346;2023-05-10T05:23:08;9.87;;;7.17;;
5776;SDS011;2914;42.668;23.346;2023-05-10T05:25:37;8.30;;;7.50;;
5776;SDS011;2914;42.668;23.346;2023-05-10T05:28:06;7.57;;;6.87;;
5776;SDS011;2914;42.668;23.346;2023-05-10T05:30:50;9.07;;;7.23;;
5776;SDS011;2914;42.668;23.346;2023-05-10T05:33:19;12.23;;;7.50;;
5776;SDS011;2914;42.668;23.346;2023-05-10T05:35:48;10.00;;;7.70;;
5776;SDS011;2914;42.668;23.346;2023-05-10T05:38:17;14.37;;;8.07;;
5776;SDS011;2914;42.668;23.346;2023-05-10T05:40:46;8.60;;;7.17;;
5776;SDS011;2914;42.668;23.346;2023-05-10T05:43:15;12.30;;;8.20;;
5776;SDS011;2914;42.668;23.346;2023-05-10T05:45:44;9.40;;;8.40;;
5776;SDS011;2914;42.668;23.346;2023-05-10T05:48:13;9.70;;;8.43;;
5776;SDS011;2914;42.668;23.346;2023-05-10T05:50:42;12.13;;;8.40;;
5776;SDS011;2914;42.668;23.346;2023-05-10T05:53:12;12.97;;;9.17;;
5776;SDS011;2914;42.668;23.346;2023-05-10T05:55:50;11.77;;;8.03;;
5776;SDS011;2914;42.668;23.346;2023-05-10T05:58:28;9.53;;;8.63;;
5776;SDS011;2914;42.668;23.346;2023-05-10T06:00:57;24.17;;;9.63;;
5776;SDS011;2914;42.668;23.346;2023-05-10T06:03:26;12.07;;;10.30;;
5776;SDS011;2914;42.668;23.346;2023-05-10T06:05:55;10.60;;;9.17;;
5776;SDS011;2914;42.668;23.346;2023-05-10T06:08:24;12.80;;;9.43;;
5776;SDS011;2914;42.668;23.346;2023-05-10T06:10:53;15.47;;;9.90;;
5776;SDS011;2914;42.668;23.346;2023-05-10T06:13:22;11.70;;;8.87;;
5776;SDS011;2914;42.668;23.346;2023-05-10T06:15:53;12.40;;;11.03;;
5776;SDS011;2914;42.668;23.346;2023-05-10T06:18:22;10.37;;;8.90;;
5776;SDS011;2914;42.668;23.346;2023-05-10T06:21:00;15.93;;;9.20;;
5776;SDS011;2914;42.668;23.346;2023-05-10T06:23:29;14.47;;;9.50;;
5776;SDS011;2914;42.668;23.346;2023-05-10T06:25:58;9.47;;;8.57;;
5776;SDS011;2914;42.668;23.346;2023-05-10T06:28:27;9.97;;;8.97;;
5776;SDS011;2914;42.668;23.346;2023-05-10T06:30:58;8.90;;;8.00;;
5776;SDS011;2914;42.668;23.346;2023-05-10T06:33:27;11.90;;;9.60;;
5776;SDS011;2914;42.668;23.346;2023-05-10T06:35:56;11.30;;;8.50;;
5776;SDS011;2914;42.668;23.346;2023-05-10T06:38:25;11.53;;;8.37;;
5776;SDS011;2914;42.668;23.346;2023-05-10T06:40:55;14.93;;;9.87;;
5776;SDS011;2914;42.668;23.346;2023-05-10T06:43:24;13.77;;;9.30;;
5776;SDS011;2914;42.668;23.346;2023-05-10T06:45:54;12.50;;;9.07;;
5776;SDS011;2914;42.668;23.346;2023-05-10T06:48:23;9.70;;;8.73;;
5776;SDS011;2914;42.668;23.346;2023-05-10T06:50:52;13.40;;;9.47;;
5776;SDS011;2914;42.668;23.346;2023-05-10T06:53:21;14.03;;;10.30;;
5776;SDS011;2914;42.668;23.346;2023-05-10T06:55:51;10.60;;;8.57;;
5776;SDS011;2914;42.668;23.346;2023-05-10T06:58:20;12.53;;;8.27;;
5776;SDS011;2914;42.668;23.346;2023-05-10T07:00:49;11.97;;;9.70;;
5776;SDS011;2914;42.668;23.346;2023-05-10T07:03:18;10.93;;;8.70;;
5776;SDS011;2914;42.668;23.346;2023-05-10T07:05:47;14.60;;;9.27;;
5776;SDS011;2914;42.668;23.346;2023-05-10T07:08:16;10.30;;;8.50;;
5776;SDS011;2914;42.668;23.346;2023-05-10T07:10:45;13.67;;;9.13;;
5776;SDS011;2914;42.668;23.346;2023-05-10T07:13:14;12.60;;;9.03;;
5776;SDS011;2914;42.668;23.346;2023-05-10T07:15:43;12.60;;;8.83;;
5776;SDS011;2914;42.668;23.346;2023-05-10T07:18:12;10.63;;;9.13;;
5776;SDS011;2914;42.668;23.346;2023-05-10T07:20:41;9.53;;;7.00;;
5776;SDS011;2914;42.668;23.346;2023-05-10T07:25:53;10.30;;;9.07;;
5776;SDS011;2914;42.668;23.346;2023-05-10T07:28:23;13.00;;;9.00;;
5776;SDS011;2914;42.668;23.346;2023-05-10T07:30:52;8.87;;;8.00;;
5776;SDS011;2914;42.668;23.346;2023-05-10T07:33:21;9.73;;;8.83;;
5776;SDS011;2914;42.668;23.346;2023-05-10T07:35:50;11.33;;;8.23;;
5776;SDS011;2914;42.668;23.346;2023-05-10T07:38:19;9.57;;;8.50;;
5776;SDS011;2914;42.668;23.346;2023-05-10T07:40:48;12.20;;;9.57;;
5776;SDS011;2914;42.668;23.346;2023-05-10T07:43:17;19.53;;;9.50;;
5776;SDS011;2914;42.668;23.346;2023-05-10T07:45:47;14.07;;;9.67;;
5776;SDS011;2914;42.668;23.346;2023-05-10T07:48:16;13.70;;;10.60;;
5776;SDS011;2914;42.668;23.346;2023-05-10T07:50:45;12.80;;;10.77;;
5776;SDS011;2914;42.668;23.346;2023-05-10T07:53:14;18.53;;;9.20;;
5776;SDS011;2914;42.668;23.346;2023-05-10T07:55:44;14.63;;;9.47;;
5776;SDS011;2914;42.668;23.346;2023-05-10T07:58:26;15.60;;;11.13;;
5776;SDS011;2914;42.668;23.346;2023-05-10T08:00:56;12.97;;;10.47;;
5776;SDS011;2914;42.668;23.346;2023-05-10T08:03:25;13.73;;;10.73;;
5776;SDS011;2914;42.668;23.346;2023-05-10T08:05:54;13.13;;;10.57;;
5776;SDS011;2914;42.668;23.346;2023-05-10T08:08:23;14.27;;;11.20;;
5776;SDS011;2914;42.668;23.346;2023-05-10T08:10:52;13.03;;;10.80;;
5776;SDS011;2914;42.668;23.346;2023-05-10T08:13:21;21.13;;;11.07;;
5776;SDS011;2914;42.668;23.346;2023-05-10T08:15:51;12.67;;;10.50;;
5776;SDS011;2914;42.668;23.346;2023-05-10T08:18:19;12.23;;;10.87;;
5776;SDS011;2914;42.668;23.346;2023-05-10T08:20:48;17.20;;;11.00;;
5776;SDS011;2914;42.668;23.346;2023-05-10T08:23:18;12.20;;;10.20;;
5776;SDS011;2914;42.668;23.346;2023-05-10T08:25:46;15.30;;;11.00;;
5776;SDS011;2914;42.668;23.346;2023-05-10T08:28:16;15.03;;;10.07;;
5776;SDS011;2914;42.668;23.346;2023-05-10T08:30:45;18.00;;;11.70;;
5776;SDS011;2914;42.668;23.346;2023-05-10T08:33:14;18.40;;;11.50;;
5776;SDS011;2914;42.668;23.346;2023-05-10T08:35:43;16.07;;;11.87;;
5776;SDS011;2914;42.668;23.346;2023-05-10T08:38:12;13.30;;;10.57;;
5776;SDS011;2914;42.668;23.346;2023-05-10T08:40:41;12.60;;;11.30;;
5776;SDS011;2914;42.668;23.346;2023-05-10T08:43:12;8.50;;;7.63;;
5776;SDS011;2914;42.668;23.346;2023-05-10T08:45:42;16.23;;;10.67;;
5776;SDS011;2914;42.668;23.346;2023-05-10T08:48:13;23.83;;;10.80;;
5776;SDS011;2914;42.668;23.346;2023-05-10T08:50:44;13.90;;;10.73;;
5776;SDS011;2914;42.668;23.346;2023-05-10T08:53:15;15.60;;;11.63;;
5776;SDS011;2914;42.668;23.346;2023-05-10T08:55:47;12.10;;;10.90;;
5776;SDS011;2914;42.668;23.346;2023-05-10T08:58:16;16.70;;;12.10;;
5776;SDS011;2914;42.668;23.346;2023-05-10T09:00:46;11.37;;;10.20;;
5776;SDS011;2914;42.668;23.346;2023-05-10T09:03:17;16.10;;;12.77;;
5776;SDS011;2914;42.668;23.346;2023-05-10T09:05:46;12.70;;;10.40;;
5776;SDS011;2914;42.668;23.346;2023-05-10T09:08:16;11.70;;;10.50;;
5776;SDS011;2914;42.668;23.346;2023-05-10T09:10:47;11.30;;;9.33;;
5776;SDS011;2914;42.668;23.346;2023-05-10T09:13:16;12.53;;;10.20;;
5776;SDS011;2914;42.668;23.346;2023-05-10T09:15:46;13.77;;;10.83;;
5776;SDS011;2914;42.668;23.346;2023-05-10T09:18:16;16.53;;;10.90;;
5776;SDS011;2914;42.668;23.346;2023-05-10T09:20:45;14.80;;;9.80;;
5776;SDS011;2914;42.668;23.346;2023-05-10T09:23:14;11.53;;;10.33;;
5776;SDS011;2914;42.668;23.346;2023-05-10T09:26:01;12.40;;;10.97;;
5776;SDS011;2914;42.668;23.346;2023-05-10T09:28:34;16.33;;;11.20;;
5776;SDS011;2914;42.668;23.346;2023-05-10T09:31:23;18.67;;;12.30;;
5776;SDS011;2914;42.668;23.346;2023-05-10T09:33:53;11.23;;;10.00;;
5776;SDS011;2914;42.668;23.346;2023-05-10T09:36:23;14.27;;;11.57;;
5776;SDS011;2914;42.668;23.346;2023-05-10T09:38:53;15.10;;;11.20;;
5776;SDS011;2914;42.668;23.346;2023-05-10T09:41:22;16.97;;;12.30;;
5776;SDS011;2914;42.668;23.346;2023-05-10T09:43:55;17.67;;;13.00;;
5776;SDS011;2914;42.668;23.346;2023-05-10T09:46:24;20.10;;;10.70;;
5776;SDS011;2914;42.668;23.346;2023-05-10T09:49:08;14.53;;;11.10;;
5776;SDS011;2914;42.668;23.346;2023-05-10T09:51:39;27.23;;;11.53;;
5776;SDS011;2914;42.668;23.346;2023-05-10T09:54:11;15.70;;;9.73;;
5776;SDS011;2914;42.668;23.346;2023-05-10T09:56:55;14.97;;;11.37;;
5776;SDS011;2914;42.668;23.346;2023-05-10T09:59:25;16.47;;;12.80;;
5776;SDS011;2914;42.668;23.346;2023-05-10T10:01:56;12.37;;;9.87;;
5776;SDS011;2914;42.668;23.346;2023-05-10T10:04:27;14.23;;;8.00;;
5776;SDS011;2914;42.668;23.346;2023-05-10T10:06:59;14.50;;;10.80;;
5776;SDS011;2914;42.668;23.346;2023-05-10T10:09:30;10.17;;;9.07;;
5776;SDS011;2914;42.668;23.346;2023-05-10T10:12:00;10.90;;;9.80;;
5776;SDS011;2914;42.668;23.346;2023-05-10T10:14:29;15.33;;;10.03;;
5776;SDS011;2914;42.668;23.346;2023-05-10T10:17:00;11.20;;;9.07;;
5776;SDS011;2914;42.668;23.346;2023-05-10T10:19:30;14.03;;;10.87;;
5776;SDS011;2914;42.668;23.346;2023-05-10T10:22:02;13.33;;;10.30;;
5776;SDS011;2914;42.668;23.346;2023-05-10T10:24:31;11.50;;;10.30;;
5776;SDS011;2914;42.668;23.346;2023-05-10T10:27:02;18.03;;;9.17;;
5776;SDS011;2914;42.668;23.346;2023-05-10T10:29:35;11.83;;;8.73;;
5776;SDS011;2914;42.668;23.346;2023-05-10T10:32:08;15.90;;;9.23;;
5776;SDS011;2914;42.668;23.346;2023-05-10T10:34:39;18.30;;;9.30;;
5776;SDS011;2914;42.668;23.346;2023-05-10T10:37:08;11.17;;;9.40;;
5776;SDS011;2914;42.668;23.346;2023-05-10T10:39:37;9.00;;;8.10;;
5776;SDS011;2914;42.668;23.346;2023-05-10T10:42:07;19.10;;;9.57;;
5776;SDS011;2914;42.668;23.346;2023-05-10T10:44:37;12.50;;;9.90;;
5776;SDS011;2914;42.668;23.346;2023-05-10T10:50:10;10.53;;;9.27;;
5776;SDS011;2914;42.668;23.346;2023-05-10T10:52:40;13.33;;;8.97;;
5776;SDS011;2914;42.668;23.346;2023-05-10T10:55:10;8.30;;;7.60;;
5776;SDS011;2914;42.668;23.346;2023-05-10T10:57:44;13.40;;;8.63;;
5776;SDS011;2914;42.668;23.346;2023-05-10T11:00:19;11.60;;;9.83;;
5776;SDS011;2914;42.668;23.346;2023-05-10T11:02:51;12.33;;;8.10;;
5776;SDS011;2914;42.668;23.346;2023-05-10T11:05:27;9.97;;;8.97;;
5776;SDS011;2914;42.668;23.346;2023-05-10T11:08:08;12.47;;;9.83;;
5776;SDS011;2914;42.668;23.346;2023-05-10T11:10:50;10.57;;;8.50;;
5776;SDS011;2914;42.668;23.346;2023-05-10T11:13:33;12.37;;;8.70;;
5776;SDS011;2914;42.668;23.346;2023-05-10T11:16:11;13.83;;;8.13;;
5776;SDS011;2914;42.668;23.346;2023-05-10T11:18:41;27.43;;;8.80;;
5776;SDS011;2914;42.668;23.346;2023-05-10T11:21:23;12.10;;;7.43;;
5776;SDS011;2914;42.668;23.346;2023-05-10T11:23:53;9.70;;;8.80;;
5776;SDS011;2914;42.668;23.346;2023-05-10T11:26:24;10.37;;;8.73;;
5776;SDS011;2914;42.668;23.346;2023-05-10T11:28:55;9.73;;;7.70;;
5776;SDS011;2914;42.668;23.346;2023-05-10T11:31:26;19.43;;;8.23;;
5776;SDS011;2914;42.668;23.346;2023-05-10T11:33:56;11.13;;;7.87;;
5776;SDS011;2914;42.668;23.346;2023-05-10T11:36:28;11.20;;;9.37;;
5776;SDS011;2914;42.668;23.346;2023-05-10T11:38:59;13.20;;;9.70;;
5776;SDS011;2914;42.668;23.346;2023-05-10T11:44:05;7.00;;;6.50;;
5776;SDS011;2914;42.668;23.346;2023-05-10T11:46:36;10.27;;;8.63;;
5776;SDS011;2914;42.668;23.346;2023-05-10T11:49:14;10.10;;;8.60;;
5776;SDS011;2914;42.668;23.346;2023-05-10T11:51:43;9.87;;;8.40;;
5776;SDS011;2914;42.668;23.346;2023-05-10T11:54:13;9.33;;;8.43;;
5776;SDS011;2914;42.668;23.346;2023-05-10T11:56:42;9.57;;;8.50;;
5776;SDS011;2914;42.668;23.346;2023-05-10T11:59:13;9.97;;;8.97;;
5776;SDS011;2914;42.668;23.346;2023-05-10T12:01:42;11.70;;;9.03;;
5776;SDS011;2914;42.668;23.346;2023-05-10T12:04:11;18.00;;;9.20;;
5776;SDS011;2914;42.668;23.346;2023-05-10T12:06:40;9.10;;;8.10;;
5776;SDS011;2914;42.668;23.346;2023-05-10T12:09:11;10.07;;;8.90;;
5776;SDS011;2914;42.668;23.346;2023-05-10T12:11:40;10.80;;;9.80;;
5776;SDS011;2914;42.668;23.346;2023-05-10T12:14:09;12.23;;;10.13;;
5776;SDS011;2914;42.668;23.346;2023-05-10T12:16:38;12.67;;;9.77;;
5776;SDS011;2914;42.668;23.346;2023-05-10T12:19:18;13.50;;;7.90;;
5776;SDS011;2914;42.668;23.346;2023-05-10T12:21:48;11.70;;;8.93;;
5776;SDS011;2914;42.668;23.346;2023-05-10T12:24:17;11.30;;;8.53;;
5776;SDS011;2914;42.668;23.346;2023-05-10T12:26:47;10.77;;;8.83;;
5776;SDS011;2914;42.668;23.346;2023-05-10T12:29:18;9.63;;;8.73;;
5776;SDS011;2914;42.668;23.346;2023-05-10T12:31:51;11.73;;;9.43;;
5776;SDS011;2914;42.668;23.346;2023-05-10T12:34:30;13.60;;;8.93;;
5776;SDS011;2914;42.668;23.346;2023-05-10T12:37:01;16.23;;;10.13;;
5776;SDS011;2914;42.668;23.346;2023-05-10T12:39:40;11.30;;;8.73;;
5776;SDS011;2914;42.668;23.346;2023-05-10T12:42:11;11.90;;;9.00;;
5776;SDS011;2914;42.668;23.346;2023-05-10T12:44:40;11.13;;;8.20;;
5776;SDS011;2914;42.668;23.346;2023-05-10T12:47:10;9.77;;;7.77;;
5776;SDS011;2914;42.668;23.346;2023-05-10T12:49:47;9.50;;;8.50;;
5776;SDS011;2914;42.668;23.346;2023-05-10T12:52:17;12.30;;;9.40;;
5776;SDS011;2914;42.668;23.346;2023-05-10T12:54:46;10.70;;;7.57;;
5776;SDS011;2914;42.668;23.346;2023-05-10T12:57:30;8.10;;;7.27;;
5776;SDS011;2914;42.668;23.346;2023-05-10T12:59:59;14.77;;;8.60;;
5776;SDS011;2914;42.668;23.346;2023-05-10T13:02:31;11.13;;;9.00;;
5776;SDS011;2914;42.668;23.346;2023-05-10T13:05:00;11.00;;;8.07;;
5776;SDS011;2914;42.668;23.346;2023-05-10T13:07:29;11.43;;;9.47;;
5776;SDS011;2914;42.668;23.346;2023-05-10T13:10:00;14.50;;;8.67;;
5776;SDS011;2914;42.668;23.346;2023-05-10T13:12:29;14.73;;;9.10;;
5776;SDS011;2914;42.668;23.346;2023-05-10T13:15:13;8.97;;;8.07;;
5776;SDS011;2914;42.668;23.346;2023-05-10T13:17:42;18.47;;;11.43;;
5776;SDS011;2914;42.668;23.346;2023-05-10T13:20:11;14.23;;;8.90;;
5776;SDS011;2914;42.668;23.346;2023-05-10T13:22:41;8.50;;;7.70;;
5776;SDS011;2914;42.668;23.346;2023-05-10T13:25:11;10.67;;;8.80;;
5776;SDS011;2914;42.668;23.346;2023-05-10T13:27:41;10.60;;;7.60;;
5776;SDS011;2914;42.668;23.346;2023-05-10T13:30:10;10.43;;;7.90;;
5776;SDS011;2914;42.668;23.346;2023-05-10T13:32:40;9.93;;;8.93;;
5776;SDS011;2914;42.668;23.346;2023-05-10T13:35:09;8.60;;;7.80;;
5776;SDS011;2914;42.668;23.346;2023-05-10T13:37:38;13.83;;;9.50;;
5776;SDS011;2914;42.668;23.346;2023-05-10T13:40:08;12.90;;;8.33;;
5776;SDS011;2914;42.668;23.346;2023-05-10T13:42:38;8.93;;;8.00;;
5776;SDS011;2914;42.668;23.346;2023-05-10T13:45:08;10.73;;;8.30;;
5776;SDS011;2914;42.668;23.346;2023-05-10T13:47:39;12.60;;;7.83;;
5776;SDS011;2914;42.668;23.346;2023-05-10T13:50:08;8.00;;;7.30;;
5776;SDS011;2914;42.668;23.346;2023-05-10T13:52:38;9.53;;;8.53;;
5776;SDS011;2914;42.668;23.346;2023-05-10T13:55:07;7.33;;;6.70;;
5776;SDS011;2914;42.668;23.346;2023-05-10T13:57:45;8.37;;;7.67;;
5776;SDS011;2914;42.668;23.346;2023-05-10T14:00:15;9.70;;;8.60;;
5776;SDS011;2914;42.668;23.346;2023-05-10T14:02:59;10.63;;;9.30;;
5776;SDS011;2914;42.668;23.346;2023-05-10T14:05:28;12.20;;;8.63;;
5776;SDS011;2914;42.668;23.346;2023-05-10T14:08:06;7.90;;;7.10;;
5776;SDS011;2914;42.668;23.346;2023-05-10T14:10:36;11.83;;;8.80;;
5776;SDS011;2914;42.668;23.346;2023-05-10T14:13:19;11.40;;;8.77;;
5776;SDS011;2914;42.668;23.346;2023-05-10T14:15:48;10.50;;;8.57;;
5776;SDS011;2914;42.668;23.346;2023-05-10T14:18:18;21.27;;;9.20;;
5776;SDS011;2914;42.668;23.346;2023-05-10T14:20:47;9.47;;;8.43;;
5776;SDS011;2914;42.668;23.346;2023-05-10T14:23:16;11.37;;;8.10;;
5776;SDS011;2914;42.668;23.346;2023-05-10T14:25:48;10.23;;;7.93;;
5776;SDS011;2914;42.668;23.346;2023-05-10T14:28:17;11.17;;;8.10;;
5776;SDS011;2914;42.668;23.346;2023-05-10T14:30:48;12.80;;;9.07;;
5776;SDS011;2914;42.668;23.346;2023-05-10T14:33:17;10.77;;;8.40;;
5776;SDS011;2914;42.668;23.346;2023-05-10T14:35:47;9.50;;;8.50;;
5776;SDS011;2914;42.668;23.346;2023-05-10T14:38:18;10.30;;;9.27;;
5776;SDS011;2914;42.668;23.346;2023-05-10T14:40:48;12.80;;;8.20;;
5776;SDS011;2914;42.668;23.346;2023-05-10T14:43:28;9.70;;;8.70;;
5776;SDS011;2914;42.668;23.346;2023-05-10T14:45:58;9.60;;;7.70;;
5776;SDS011;2914;42.668;23.346;2023-05-10T14:48:27;15.43;;;9.70;;
5776;SDS011;2914;42.668;23.346;2023-05-10T14:50:56;10.33;;;9.07;;
5776;SDS011;2914;42.668;23.346;2023-05-10T14:53:25;13.10;;;8.53;;
5776;SDS011;2914;42.668;23.346;2023-05-10T14:55:54;9.47;;;8.50;;
5776;SDS011;2914;42.668;23.346;2023-05-10T14:58:24;9.60;;;8.20;;
5776;SDS011;2914;42.668;23.346;2023-05-10T15:01:08;12.23;;;9.40;;
5776;SDS011;2914;42.668;23.346;2023-05-10T15:03:37;19.00;;;8.57;;
5776;SDS011;2914;42.668;23.346;2023-05-10T15:06:23;12.60;;;8.53;;
5776;SDS011;2914;42.668;23.346;2023-05-10T15:08:54;18.27;;;8.77;;
5776;SDS011;2914;42.668;23.346;2023-05-10T15:11:31;12.30;;;7.87;;
5776;SDS011;2914;42.668;23.346;2023-05-10T15:14:01;11.20;;;9.80;;
5776;SDS011;2914;42.668;23.346;2023-05-10T15:16:44;16.03;;;9.67;;
5776;SDS011;2914;42.668;23.346;2023-05-10T15:19:13;12.03;;;8.90;;
5776;SDS011;2914;42.668;23.346;2023-05-10T15:21:42;9.20;;;8.30;;
5776;SDS011;2914;42.668;23.346;2023-05-10T15:24:20;11.90;;;8.30;;
5776;SDS011;2914;42.668;23.346;2023-05-10T15:26:50;12.50;;;7.77;;
5776;SDS011;2914;42.668;23.346;2023-05-10T15:29:27;10.73;;;8.43;;
5776;SDS011;2914;42.668;23.346;2023-05-10T15:31:57;11.93;;;7.83;;
5776;SDS011;2914;42.668;23.346;2023-05-10T15:34:41;10.23;;;7.73;;
5776;SDS011;2914;42.668;23.346;2023-05-10T15:37:10;8.00;;;7.20;;